Time;durP1;ratioP1;P1;durP2;ratioP2;P2;SDS_P1;SDS_P2;PMS_P1;PMS_P2;Temp;Humidity;BMP_temperature;BMP_pressure;BME280_temperature;BME280_humidity;BME280_pressure;Samples;Min_cycle;Max_cycle;Signal;HPM_P1;HPM_P2
2021/01/17 00:14:37;;;;;;;0.40;0.40;;;;;;;-3.71;71.29;99495.16;6129058;23;20510;-85
2021/01/17 00:18:26;;;;;;;0.50;0.50;;;;;;;-3.85;72.83;99469.34;6117302;23;20404;-86
2021/01/17 00:26:34;;;;;;;0.50;0.50;;;;;;;-3.72;72.34;99472.56;6124620;23;20451;-85
2021/01/17 00:30:05;;;;;;;0.50;0.50;;;;;;;-3.82;71.85;99458.59;6066387;23;20425;-84
2021/01/17 00:34:01;;;;;;;0.50;0.50;;;;;;;-3.78;73.39;99454.78;6007680;23;20422;-85
2021/01/17 00:40:41;;;;;;;0.50;0.50;;;;;;;-3.68;73.28;99477.38;5967101;23;20435;-86
2021/01/17 00:44:48;;;;;;;0.50;0.50;;;;;;;-3.67;72.35;99481.66;6014087;23;20496;-86
2021/01/17 00:48:09;;;;;;;0.40;0.40;;;;;;;-3.66;70.93;99475.47;5998513;23;20394;-85
2021/01/17 00:51:55;;;;;;;0.40;0.40;;;;;;;-3.60;71.93;99479.38;6036114;23;20419;-85
2021/01/17 00:55:36;;;;;;;0.40;0.40;;;;;;;-3.75;72.80;99454.50;6023279;23;20473;-85
2021/01/17 00:59:01;;;;;;;0.50;0.50;;;;;;;-3.68;73.04;99458.22;5987638;23;20206;-86
2021/01/17 01:02:22;;;;;;;0.40;0.40;;;;;;;-3.60;72.50;99474.13;6036025;23;20424;-86
2021/01/17 01:05:46;;;;;;;0.40;0.40;;;;;;;-3.68;73.16;99464.28;6037687;23;20137;-85
2021/01/17 01:09:09;;;;;;;0.50;0.50;;;;;;;-3.74;73.86;99459.63;6015730;23;20433;-84
2021/01/17 01:12:21;;;;;;;0.40;0.40;;;;;;;-3.67;73.92;99463.34;6014373;23;20431;-85
2021/01/17 01:16:07;;;;;;;0.40;0.40;;;;;;;-3.68;72.04;99460.84;6036206;23;20164;-85
2021/01/17 01:20:01;;;;;;;0.40;0.40;;;;;;;-3.61;73.25;99462.81;6099844;23;20398;-86
2021/01/17 01:23:52;;;;;;;0.50;0.50;;;;;;;-3.59;72.61;99460.03;6080774;23;20406;-85
2021/01/17 01:28:22;;;;;;;0.40;0.40;;;;;;;-3.68;71.92;99432.03;6183350;23;20407;-83
2021/01/17 01:31:58;;;;;;;0.43;0.43;;;;;;;-3.64;72.78;99433.47;6183884;23;20476;-85
2021/01/17 01:35:00;;;;;;;0.40;0.40;;;;;;;-3.51;72.61;99438.44;6089397;23;20418;-85
2021/01/17 01:38:29;;;;;;;0.40;0.40;;;;;;;-3.50;73.64;99435.69;6132707;23;20385;-85
2021/01/17 01:41:45;;;;;;;0.40;0.40;;;;;;;-3.55;71.71;99422.97;6165239;23;20146;-85
2021/01/17 01:45:29;;;;;;;0.50;0.50;;;;;;;-3.51;72.24;99426.19;6182589;23;20401;-84
2021/01/17 01:48:47;;;;;;;0.40;0.40;;;;;;;-3.51;72.81;99427.97;6171046;23;20416;-85
2021/01/17 01:55:10;;;;;;;0.40;0.40;;;;;;;-3.60;72.25;99406.88;6153718;23;20180;-85
2021/01/17 01:58:59;;;;;;;0.40;0.40;;;;;;;-3.56;72.71;99410.03;6184057;23;20373;-85
2021/01/17 02:02:40;;;;;;;0.50;0.50;;;;;;;-3.62;71.81;99384.38;6180494;23;20154;-85
2021/01/17 02:06:46;;;;;;;0.47;0.47;;;;;;;-3.32;68.02;99402.63;6168146;23;20158;-86
2021/01/17 02:11:07;;;;;;;0.50;0.50;;;;;;;-3.41;68.43;99398.22;6183751;23;20441;-83
2021/01/17 02:15:15;;;;;;;0.50;0.50;;;;;;;-3.33;67.27;99395.72;6182145;23;20164;-85
2021/01/17 02:18:57;;;;;;;0.50;0.50;;;;;;;-3.48;67.04;99381.38;6181616;23;20412;-85
2021/01/17 02:21:46;;;;;;;0.50;0.50;;;;;;;-3.40;67.02;99388.53;6183755;23;20416;-85
2021/01/17 02:25:39;;;;;;;0.40;0.40;;;;;;;-3.44;67.78;99368.81;6179022;23;20431;-86
2021/01/17 02:29:24;;;;;;;0.40;0.40;;;;;;;-3.43;67.94;99363.47;6180523;23;20403;-84
2021/01/17 02:33:07;;;;;;;0.50;0.50;;;;;;;-3.31;66.51;99362.34;6183524;23;20513;-86
2021/01/17 02:36:50;;;;;;;0.50;0.50;;;;;;;-3.35;67.15;99360.13;6157169;23;20485;-85
2021/01/17 02:40:32;;;;;;;0.40;0.40;;;;;;;-3.23;66.68;99377.38;6071485;23;20429;-85
2021/01/17 02:52:38;;;;;;;0.40;0.40;;;;;;;-3.28;64.31;99362.09;6067770;23;20457;-85
2021/01/17 02:56:44;;;;;;;0.50;0.50;;;;;;;-3.21;63.52;99363.16;6028648;23;20428;-86
2021/01/17 03:00:19;;;;;;;0.50;0.50;;;;;;;-3.23;65.30;99357.25;6067519;23;20415;-85
2021/01/17 03:03:38;;;;;;;0.40;0.40;;;;;;;-3.15;63.58;99370.50;6064075;23;20476;-85
2021/01/17 03:11:00;;;;;;;0.50;0.50;;;;;;;-3.19;65.18;99373.53;6120111;23;20525;-85
2021/01/17 03:14:52;;;;;;;0.50;0.50;;;;;;;-3.24;64.56;99371.31;6103824;23;20411;-85
2021/01/17 03:18:12;;;;;;;0.40;0.40;;;;;;;-3.29;65.31;99365.66;6124796;23;20422;-86
2021/01/17 03:22:00;;;;;;;0.40;0.40;;;;;;;-3.24;64.69;99380.97;6110544;23;20395;-85
2021/01/17 03:24:54;;;;;;;0.50;0.50;;;;;;;-3.31;67.10;99366.78;6124073;23;20390;-86
2021/01/17 03:28:43;;;;;;;0.50;0.50;;;;;;;-3.25;64.43;99364.41;6214790;23;20199;-85
2021/01/17 03:32:41;;;;;;;0.50;0.50;;;;;;;-3.26;65.55;99356.69;6214936;23;20403;-85
2021/01/17 03:35:41;;;;;;;0.50;0.50;;;;;;;-3.21;65.68;99375.44;6207423;23;20169;-85
2021/01/17 03:39:14;;;;;;;0.40;0.40;;;;;;;-3.19;66.51;99387.47;6214922;23;20152;-85
2021/01/17 03:46:01;;;;;;;0.40;0.40;;;;;;;-3.19;64.06;99363.03;6214982;23;20147;-85
2021/01/17 03:49:39;;;;;;;0.40;0.40;;;;;;;-3.23;65.15;99362.50;6204020;23;20205;-84
2021/01/17 03:53:01;;;;;;;0.40;0.40;;;;;;;-3.21;64.63;99365.78;6214886;23;20228;-85
2021/01/17 03:56:33;;;;;;;0.40;0.40;;;;;;;-3.21;65.59;99370.19;6188537;23;20153;-85
2021/01/17 04:00:05;;;;;;;0.40;0.40;;;;;;;-3.25;66.13;99372.28;6209070;23;20157;-86
2021/01/17 04:03:54;;;;;;;0.40;0.40;;;;;;;-3.28;67.70;99364.72;6190614;23;20216;-85
2021/01/17 04:07:05;;;;;;;0.50;0.50;;;;;;;-3.31;68.11;99353.69;6212887;23;20144;-85
2021/01/17 04:10:31;;;;;;;0.50;0.50;;;;;;;-3.26;67.84;99359.31;6163417;23;20200;-85
2021/01/17 04:13:32;;;;;;;0.40;0.40;;;;;;;-3.29;69.02;99373.53;6218648;22;20194;-85
2021/01/17 04:17:29;;;;;;;0.40;0.40;;;;;;;-3.23;68.28;99365.13;6174546;22;20414;-85
2021/01/17 04:20:44;;;;;;;0.40;0.40;;;;;;;-3.29;69.63;99368.28;6202957;22;20155;-86
2021/01/17 04:24:44;;;;;;;0.40;0.40;;;;;;;-3.35;68.05;99352.28;6245042;22;20136;-85
2021/01/17 04:27:59;;;;;;;0.40;0.40;;;;;;;-3.35;68.34;99347.03;6242407;22;20198;-85
2021/01/17 04:31:21;;;;;;;0.50;0.50;;;;;;;-3.33;68.33;99358.22;6237230;22;20148;-85
2021/01/17 04:34:56;;;;;;;0.50;0.50;;;;;;;-3.22;65.39;99348.41;6236194;22;20160;-85
2021/01/17 04:38:43;;;;;;;0.50;0.50;;;;;;;-2.93;64.11;99365.91;6209414;22;20422;-86
2021/01/17 04:42:41;;;;;;;0.40;0.40;;;;;;;-3.21;65.29;99336.13;6244570;22;20178;-86
2021/01/17 04:46:45;;;;;;;0.40;0.40;;;;;;;-3.17;67.46;99338.34;6234995;22;20430;-85
2021/01/17 04:50:05;;;;;;;0.40;0.40;;;;;;;-3.24;67.33;99334.63;6244180;22;20387;-85
2021/01/17 04:53:25;;;;;;;0.50;0.50;;;;;;;-3.21;65.37;99330.91;6244386;22;20457;-85
2021/01/17 04:56:53;;;;;;;0.50;0.50;;;;;;;-3.26;67.29;99328.69;6244248;22;20160;-85
2021/01/17 05:00:16;;;;;;;0.50;0.50;;;;;;;-3.21;66.84;99336.97;6243905;22;20386;-84
2021/01/17 05:04:28;;;;;;;0.50;0.50;;;;;;;-3.12;64.29;99345.78;6226521;22;20156;-85
2021/01/17 05:08:13;;;;;;;0.50;0.50;;;;;;;-3.11;64.23;99347.44;6151710;22;20161;-84
2021/01/17 05:11:45;;;;;;;0.40;0.40;;;;;;;-3.22;65.35;99340.53;6206524;23;20427;-86
2021/01/17 05:15:21;;;;;;;0.50;0.50;;;;;;;-3.23;65.63;99341.53;6195802;23;20419;-85
2021/01/17 05:18:43;;;;;;;0.40;0.40;;;;;;;-3.13;64.24;99328.44;6184874;23;20156;-85
2021/01/17 05:22:06;;;;;;;0.40;0.40;;;;;;;-3.13;65.52;99347.56;6213222;23;20414;-85
2021/01/17 05:25:50;;;;;;;0.50;0.50;;;;;;;-3.24;65.63;99321.53;6214029;23;20419;-85
2021/01/17 05:28:58;;;;;;;0.40;0.40;;;;;;;-3.09;64.53;99342.06;6213108;23;20388;-86
2021/01/17 05:32:45;;;;;;;0.40;0.40;;;;;;;-3.05;65.79;99346.88;6206152;23;20435;-85
2021/01/17 05:36:06;;;;;;;0.50;0.50;;;;;;;-3.06;64.14;99345.22;6188714;23;20458;-86
2021/01/17 05:43:19;;;;;;;0.40;0.40;;;;;;;-3.12;67.38;99348.41;6213419;23;20396;-85
2021/01/17 05:46:41;;;;;;;0.40;0.40;;;;;;;-3.22;67.65;99334.50;6168077;23;20400;-85
2021/01/17 05:49:47;;;;;;;0.40;0.40;;;;;;;-3.21;68.16;99341.38;6187590;23;20402;-84
2021/01/17 05:56:57;;;;;;;0.40;0.40;;;;;;;-3.29;67.80;99334.22;6213917;23;20172;-85
2021/01/17 06:00:33;;;;;;;0.40;0.40;;;;;;;-3.31;66.77;99332.72;6212722;23;20213;-85
2021/01/17 06:03:58;;;;;;;0.50;0.50;;;;;;;-3.28;66.98;99340.28;6188215;23;20167;-85
2021/01/17 06:07:25;;;;;;;0.50;0.50;;;;;;;-3.29;67.95;99334.22;6118911;23;20191;-86
2021/01/17 06:11:22;;;;;;;0.50;0.50;;;;;;;-3.18;67.97;99360.28;6137497;23;20259;-85
2021/01/17 06:14:34;;;;;;;0.40;0.40;;;;;;;-3.25;67.69;99361.78;6132738;23;20177;-85
2021/01/17 06:18:29;;;;;;;0.40;0.40;;;;;;;-3.30;68.47;99350.91;6151845;23;20161;-85
2021/01/17 06:22:19;;;;;;;0.40;0.40;;;;;;;-3.14;67.39;99384.41;6125727;23;20159;-84
2021/01/17 06:25:47;;;;;;;0.40;0.40;;;;;;;-3.27;66.29;99376.00;6125555;23;20185;-85
2021/01/17 06:29:17;;;;;;;0.40;0.40;;;;;;;-3.28;67.54;99380.44;6120668;23;20425;-85
2021/01/17 06:32:34;;;;;;;0.40;0.40;;;;;;;-3.30;66.66;99366.63;6123652;23;20485;-84
2021/01/17 06:35:43;;;;;;;0.40;0.40;;;;;;;-3.26;65.00;99381.09;6125858;23;20151;-84
2021/01/17 06:39:38;;;;;;;0.43;0.43;;;;;;;-3.27;65.69;99378.63;6124861;23;20151;-84
2021/01/17 06:43:09;;;;;;;0.40;0.40;;;;;;;-3.14;66.35;99392.28;6122377;23;20430;-85
2021/01/17 06:46:30;;;;;;;0.40;0.40;;;;;;;-3.19;67.87;99386.63;6106651;23;20401;-85
2021/01/17 06:53:33;;;;;;;0.50;0.50;;;;;;;-3.15;65.49;99380.97;6179078;23;20210;-85
2021/01/17 06:57:13;;;;;;;0.40;0.40;;;;;;;-3.19;65.01;99386.63;6180348;23;20388;-85
2021/01/17 07:00:26;;;;;;;0.50;0.50;;;;;;;-3.08;65.95;99394.34;6174746;23;20392;-85
2021/01/17 07:07:39;;;;;;;0.50;0.50;;;;;;;-3.09;66.93;99400.56;6214470;23;20418;-85
2021/01/17 07:11:14;;;;;;;0.40;0.40;;;;;;;-3.16;66.20;99394.19;6199591;23;20427;-84
2021/01/17 07:14:28;;;;;;;0.50;0.50;;;;;;;-3.17;66.76;99393.38;6071784;23;20396;-86
2021/01/17 07:17:52;;;;;;;0.50;0.50;;;;;;;-3.13;67.24;99402.59;6067609;23;20416;-85
2021/01/17 07:21:08;;;;;;;0.50;0.50;;;;;;;-3.00;66.97;99407.59;6047442;23;20402;-86
2021/01/17 07:24:30;;;;;;;0.50;0.50;;;;;;;-3.10;65.87;99401.53;6061403;23;20160;-86
2021/01/17 07:32:22;;;;;;;0.40;0.40;;;;;;;-2.89;66.58;99409.25;6084455;23;20916;-85
2021/01/17 07:35:48;;;;;;;0.40;0.40;;;;;;;-2.97;66.47;99403.84;6038733;23;20403;-85
2021/01/17 07:39:36;;;;;;;0.40;0.40;;;;;;;-2.87;66.11;99413.38;6092103;23;20395;-86
2021/01/17 07:42:27;;;;;;;0.40;0.40;;;;;;;-2.83;65.42;99414.75;6089763;23;20398;-86
2021/01/17 07:46:13;;;;;;;0.40;0.40;;;;;;;-2.80;66.52;99413.66;6190356;23;20403;-85
2021/01/17 07:53:54;;;;;;;0.40;0.40;;;;;;;-2.75;66.17;99432.38;6155162;23;20455;-85
2021/01/17 07:57:52;;;;;;;0.40;0.40;;;;;;;-2.88;66.41;99424.81;6170259;23;20160;-85
2021/01/17 08:01:06;;;;;;;0.50;0.50;;;;;;;-2.85;66.65;99419.31;6168096;23;20173;-85
2021/01/17 08:04:16;;;;;;;0.40;0.40;;;;;;;-2.68;66.41;99438.75;6177685;23;20163;-85
2021/01/17 08:07:59;;;;;;;0.40;0.40;;;;;;;-2.79;66.78;99420.53;6172623;23;20176;-86
2021/01/17 08:11:07;;;;;;;0.40;0.40;;;;;;;-2.60;66.59;99438.84;6162919;23;20266;-85
2021/01/17 08:14:21;;;;;;;0.50;0.50;;;;;;;-2.68;66.72;99436.94;6162091;23;20392;-85
2021/01/17 08:17:41;;;;;;;0.33;0.33;;;;;;;-2.74;66.68;99421.75;6166309;23;20394;-85
2021/01/17 08:40:05;;;;;;;0.40;0.40;;;;;;;-2.58;66.30;99431.69;6183156;23;20389;-85
2021/01/17 08:43:19;;;;;;;0.40;0.40;;;;;;;-2.51;64.87;99445.88;6183033;23;20149;-85
2021/01/17 08:46:06;;;;;;;0.40;0.40;;;;;;;-2.48;66.06;99452.66;6160129;23;20429;-84
2021/01/17 09:06:32;;;;;;;0.40;0.40;;;;;;;-2.43;65.54;99458.31;6124219;23;20441;-85
2021/01/17 09:11:04;;;;;;;0.40;0.40;;;;;;;-2.20;65.03;99467.50;6100824;23;20186;-85
2021/01/17 09:15:20;;;;;;;0.40;0.40;;;;;;;-2.16;65.83;99481.16;6124784;23;20194;-85
2021/01/17 09:31:07;;;;;;;0.40;0.40;;;;;;;-2.25;63.62;99491.56;6118369;23;20442;-85
2021/01/17 09:34:47;;;;;;;0.50;0.50;;;;;;;-2.19;66.09;99492.75;6122916;23;20419;-86
2021/01/17 09:42:53;;;;;;;0.40;0.40;;;;;;;-2.14;65.82;99489.69;6124736;23;20194;-85
2021/01/17 09:46:23;;;;;;;0.40;0.40;;;;;;;-2.21;64.92;99486.84;6118783;23;20170;-86
2021/01/17 09:58:24;;;;;;;0.40;0.40;;;;;;;-2.03;66.21;99494.78;6071111;23;20147;-84
2021/01/17 10:09:29;;;;;;;0.50;0.50;;;;;;;-1.94;64.58;99471.13;6120129;23;20218;-85
2021/01/17 10:13:09;;;;;;;0.40;0.40;;;;;;;-1.80;64.32;99477.72;6104057;23;20214;-85
2021/01/17 10:17:00;;;;;;;0.40;0.40;;;;;;;-1.63;63.25;99482.19;6098798;23;20174;-85
2021/01/17 10:21:20;;;;;;;0.40;0.40;;;;;;;-1.72;63.33;99462.03;6124176;23;20185;-85
2021/01/17 10:29:34;;;;;;;0.47;0.47;;;;;;;-1.46;61.38;99477.97;6124179;23;20166;-84
2021/01/17 10:42:28;;;;;;;0.40;0.40;;;;;;;-1.56;61.81;99482.44;6124327;23;20170;-85
